Time;durP1;ratioP1;P1;durP2;ratioP2;P2;SDS_P1;SDS_P2;PMS_P1;PMS_P2;Temp;Humidity;BMP_temperature;BMP_pressure;BME280_temperature;BME280_humidity;BME280_pressure;Samples;Min_cycle;Max_cycle;Signal;HPM_P1;HPM_P2
2023/06/05 00:00:17;;;;;;;;;;;19.50;71.00;;;;;;5028178;28;20358;-77
2023/06/05 00:02:44;;;;;;;;;;;19.50;71.20;;;;;;5027653;28;19929;-76
2023/06/05 00:05:12;;;;;;;;;;;19.50;71.20;;;;;;5029491;28;19953;-76
2023/06/05 00:07:39;;;;;;;;;;;19.50;71.20;;;;;;5023496;28;19929;-77
2023/06/05 00:10:06;;;;;;;;;;;19.40;71.00;;;;;;5027616;28;19933;-77
2023/06/05 00:12:33;;;;;;;;;;;19.40;71.20;;;;;;5025050;28;20463;-76
2023/06/05 00:15:01;;;;;;;;;;;19.40;71.20;;;;;;5006646;28;20023;-77
2023/06/05 00:17:28;;;;;;;;;;;19.30;71.00;;;;;;5023036;28;20419;-77
2023/06/05 00:19:54;;;;;;;;;;;19.30;71.00;;;;;;5023499;28;19937;-77
2023/06/05 00:22:23;;;;;;;;;;;19.30;71.00;;;;;;5026120;28;19928;-76
2023/06/05 00:24:50;;;;;;;;;;;19.20;70.90;;;;;;5026969;28;19925;-76
2023/06/05 00:27:16;;;;;;;;;;;19.20;71.00;;;;;;5026128;28;19980;-77
2023/06/05 00:29:43;;;;;;;;;;;19.20;71.00;;;;;;5023823;28;20373;-77
2023/06/05 00:32:10;;;;;;;;;;;19.20;71.10;;;;;;5024875;28;19971;-77
2023/06/05 00:34:37;;;;;;;;;;;19.10;71.10;;;;;;5028244;28;20001;-77
2023/06/05 00:37:04;;;;;;;;;;;19.10;71.00;;;;;;5004988;28;21231;-76
2023/06/05 00:39:33;;;;;;;;;;;19.10;70.90;;;;;;5009795;28;19932;-77
2023/06/05 00:41:59;;;;;;;;;;;19.00;70.90;;;;;;5013129;28;19979;-77
2023/06/05 00:44:26;;;;;;;;;;;19.00;70.90;;;;;;5024963;28;20498;-77
2023/06/05 00:46:53;;;;;;;;;;;19.00;70.90;;;;;;5022707;28;20349;-77
2023/06/05 00:49:20;;;;;;;;;;;19.00;71.00;;;;;;5024475;28;19959;-76
2023/06/05 00:51:47;;;;;;;;;;;19.00;71.00;;;;;;5027032;28;20011;-77
2023/06/05 00:54:14;;;;;;;;;;;19.00;71.00;;;;;;5020785;28;19948;-77
2023/06/05 00:56:43;;;;;;;;;;;18.90;70.90;;;;;;5025377;28;20024;-77
2023/06/05 00:59:12;;;;;;;;;;;18.90;70.90;;;;;;5024707;28;19933;-77
2023/06/05 01:01:40;;;;;;;;;;;18.80;70.70;;;;;;5024502;28;19929;-76
2023/06/05 01:04:07;;;;;;;;;;;18.80;70.70;;;;;;5022525;28;19925;-77
2023/06/05 01:06:34;;;;;;;;;;;18.80;70.70;;;;;;5025943;28;19925;-76
2023/06/05 01:09:02;;;;;;;;;;;18.80;70.70;;;;;;5027400;28;20032;-76
2023/06/05 01:11:31;;;;;;;;;;;18.70;70.50;;;;;;5024250;28;20336;-77
2023/06/05 01:14:03;;;;;;;;;;;18.70;70.50;;;;;;5024043;28;19964;-77
2023/06/05 01:16:32;;;;;;;;;;;18.70;70.60;;;;;;5025225;28;19925;-76
2023/06/05 01:19:02;;;;;;;;;;;18.70;70.50;;;;;;5004159;28;19933;-76
2023/06/05 01:21:29;;;;;;;;;;;18.70;70.50;;;;;;5019614;28;19929;-77
2023/06/05 01:23:58;;;;;;;;;;;18.60;70.60;;;;;;5024792;28;20296;-76
2023/06/05 01:26:27;;;;;;;;;;;18.60;70.50;;;;;;5024048;28;19928;-77
2023/06/05 01:28:54;;;;;;;;;;;18.60;70.60;;;;;;5020881;28;19925;-77
2023/06/05 01:31:22;;;;;;;;;;;18.60;70.70;;;;;;5028114;28;19979;-77
2023/06/05 01:33:52;;;;;;;;;;;18.50;70.70;;;;;;5028964;28;19925;-76
2023/06/05 01:36:21;;;;;;;;;;;18.50;70.70;;;;;;5020785;28;20304;-76
2023/06/05 01:38:49;;;;;;;;;;;18.50;70.60;;;;;;5022302;28;20304;-76
2023/06/05 01:41:18;;;;;;;;;;;18.50;70.50;;;;;;5030205;28;20369;-76
2023/06/05 01:43:46;;;;;;;;;;;18.50;70.40;;;;;;5026826;28;19965;-76
2023/06/05 01:46:13;;;;;;;;;;;18.40;70.20;;;;;;5023510;28;20387;-77
2023/06/05 01:48:40;;;;;;;;;;;18.40;70.20;;;;;;5011722;28;19925;-76
2023/06/05 01:51:07;;;;;;;;;;;18.40;70.20;;;;;;5014097;28;20000;-77
2023/06/05 01:53:35;;;;;;;;;;;18.40;70.30;;;;;;5025312;28;19975;-77
2023/06/05 01:56:04;;;;;;;;;;;18.40;70.40;;;;;;5030220;28;19925;-77
2023/06/05 01:58:33;;;;;;;;;;;18.30;70.20;;;;;;5025863;28;19929;-76
2023/06/05 02:00:59;;;;;;;;;;;18.30;70.20;;;;;;5024447;28;19979;-76
2023/06/05 02:03:26;;;;;;;;;;;18.30;70.20;;;;;;5025035;28;20009;-76
2023/06/05 02:05:54;;;;;;;;;;;18.30;70.40;;;;;;5014451;28;20296;-76
2023/06/05 02:08:22;;;;;;;;;;;18.30;70.40;;;;;;5023699;28;20382;-76
2023/06/05 02:10:49;;;;;;;;;;;18.20;70.50;;;;;;5022163;28;19947;-75
2023/06/05 02:13:18;;;;;;;;;;;18.20;70.30;;;;;;5029870;28;19925;-76
2023/06/05 02:15:46;;;;;;;;;;;18.20;70.40;;;;;;5026458;28;20295;-76
2023/06/05 02:18:15;;;;;;;;;;;18.20;70.50;;;;;;5026131;28;19933;-76
2023/06/05 02:20:43;;;;;;;;;;;18.10;70.30;;;;;;5007261;28;20408;-76
2023/06/05 02:23:11;;;;;;;;;;;18.10;70.30;;;;;;5029037;28;19971;-76
2023/06/05 02:25:38;;;;;;;;;;;18.10;70.50;;;;;;5023548;28;20383;-76
2023/06/05 02:28:05;;;;;;;;;;;18.10;70.50;;;;;;5025451;28;19929;-77
2023/06/05 02:30:32;;;;;;;;;;;18.10;70.40;;;;;;5025229;28;19929;-77
2023/06/05 02:33:01;;;;;;;;;;;18.10;70.30;;;;;;5026813;28;20430;-76
2023/06/05 02:35:29;;;;;;;;;;;18.00;70.50;;;;;;5009883;28;19956;-75
2023/06/05 02:37:56;;;;;;;;;;;18.00;70.50;;;;;;5024558;28;19929;-77
2023/06/05 02:40:23;;;;;;;;;;;18.00;70.50;;;;;;5025901;28;20430;-77
2023/06/05 02:42:50;;;;;;;;;;;18.00;70.60;;;;;;5014152;28;19987;-76
2023/06/05 02:45:18;;;;;;;;;;;17.90;70.60;;;;;;5028272;28;20455;-76
2023/06/05 02:47:44;;;;;;;;;;;17.90;70.60;;;;;;5029481;28;20395;-76
2023/06/05 02:50:13;;;;;;;;;;;17.90;70.50;;;;;;5029621;28;19997;-76
2023/06/05 02:52:44;;;;;;;;;;;17.90;70.60;;;;;;5011647;28;20363;-76
2023/06/05 02:55:17;;;;;;;;;;;17.90;70.60;;;;;;5025578;28;20387;-76
2023/06/05 02:57:48;;;;;;;;;;;17.90;70.60;;;;;;5022408;28;19925;-76
2023/06/05 03:00:19;;;;;;;;;;;17.80;70.60;;;;;;5025934;28;19925;-77
2023/06/05 03:02:51;;;;;;;;;;;17.80;70.80;;;;;;5025137;28;19925;-76
2023/06/05 03:05:24;;;;;;;;;;;17.80;70.80;;;;;;5022180;28;19936;-76
2023/06/05 03:07:54;;;;;;;;;;;17.80;71.00;;;;;;5025932;28;19980;-77
2023/06/05 03:10:21;;;;;;;;;;;17.70;70.90;;;;;;5026843;28;19948;-76
2023/06/05 03:12:48;;;;;;;;;;;17.70;70.80;;;;;;5007146;28;19925;-77
2023/06/05 03:15:17;;;;;;;;;;;17.70;71.00;;;;;;5022163;28;19933;-77
2023/06/05 03:17:47;;;;;;;;;;;17.70;71.10;;;;;;5025888;28;19929;-77
2023/06/05 03:20:14;;;;;;;;;;;17.70;71.20;;;;;;5024337;28;19926;-76
2023/06/05 03:22:42;;;;;;;;;;;17.70;71.30;;;;;;5026048;28;20406;-76
2023/06/05 03:25:10;;;;;;;;;;;17.60;71.20;;;;;;5025406;28;19933;-77
2023/06/05 03:27:39;;;;;;;;;;;17.60;71.20;;;;;;5010209;28;20010;-76
2023/06/05 03:30:08;;;;;;;;;;;17.60;71.20;;;;;;5023372;28;19939;-76
2023/06/05 03:32:41;;;;;;;;;;;17.60;71.10;;;;;;5024496;28;20388;-77
2023/06/05 03:35:08;;;;;;;;;;;17.60;71.20;;;;;;5022563;28;19929;-76
2023/06/05 03:37:36;;;;;;;;;;;17.50;71.30;;;;;;5023247;28;20419;-76
2023/06/05 03:40:06;;;;;;;;;;;17.50;71.40;;;;;;5011789;28;20015;-77
2023/06/05 03:42:35;;;;;;;;;;;17.50;71.30;;;;;;5025727;28;19941;-77
2023/06/05 03:45:03;;;;;;;;;;;17.50;71.40;;;;;;5010593;28;20016;-77
2023/06/05 03:47:30;;;;;;;;;;;17.50;71.60;;;;;;5010888;28;20346;-76
2023/06/05 03:50:00;;;;;;;;;;;17.50;71.60;;;;;;5025671;28;20328;-77
2023/06/05 03:52:30;;;;;;;;;;;17.40;71.50;;;;;;5024115;28;20557;-77
2023/06/05 03:54:57;;;;;;;;;;;17.40;71.70;;;;;;5007041;28;20004;-77
2023/06/05 03:57:25;;;;;;;;;;;17.40;71.70;;;;;;5007017;28;19925;-77
2023/06/05 03:59:52;;;;;;;;;;;17.40;71.80;;;;;;5026700;28;19925;-77
2023/06/05 04:02:19;;;;;;;;;;;17.40;71.80;;;;;;5007298;28;20024;-77
2023/06/05 04:04:46;;;;;;;;;;;17.40;71.90;;;;;;5020357;28;20021;-77
2023/06/05 04:07:13;;;;;;;;;;;17.40;72.00;;;;;;5008819;28;19932;-77
2023/06/05 04:09:40;;;;;;;;;;;17.30;71.90;;;;;;5028088;28;19925;-76
2023/06/05 04:12:10;;;;;;;;;;;17.30;72.00;;;;;;5026692;28;19926;-76
2023/06/05 04:14:38;;;;;;;;;;;17.30;72.00;;;;;;5008910;28;19925;-77
2023/06/05 04:17:06;;;;;;;;;;;17.30;72.10;;;;;;5025297;28;19933;-77
2023/06/05 04:19:33;;;;;;;;;;;17.30;72.10;;;;;;5026248;28;19933;-77
2023/06/05 04:22:01;;;;;;;;;;;17.30;72.20;;;;;;5023045;28;20040;-76
2023/06/05 04:24:30;;;;;;;;;;;17.20;72.20;;;;;;5023663;28;19940;-76
2023/06/05 04:27:00;;;;;;;;;;;17.20;72.20;;;;;;5022568;28;19929;-77
2023/06/05 04:29:27;;;;;;;;;;;17.20;72.30;;;;;;5022386;28;19926;-76
2023/06/05 04:31:55;;;;;;;;;;;17.20;72.20;;;;;;5020332;28;20350;-76
2023/06/05 04:34:22;;;;;;;;;;;17.20;72.40;;;;;;5004870;28;19941;-76
2023/06/05 04:36:49;;;;;;;;;;;17.20;72.40;;;;;;5009824;28;19971;-76
2023/06/05 04:39:18;;;;;;;;;;;17.10;72.40;;;;;;5006716;28;19926;-77
2023/06/05 04:41:46;;;;;;;;;;;17.10;72.50;;;;;;5019679;28;19976;-76
2023/06/05 04:44:16;;;;;;;;;;;17.10;72.60;;;;;;5008448;28;20462;-76
2023/06/05 04:46:44;;;;;;;;;;;17.10;72.60;;;;;;5025642;28;19925;-76
2023/06/05 04:49:14;;;;;;;;;;;17.10;72.70;;;;;;5020803;28;19932;-77
2023/06/05 04:51:43;;;;;;;;;;;17.10;72.80;;;;;;5027483;28;20027;-78
2023/06/05 04:54:11;;;;;;;;;;;17.00;72.70;;;;;;5024264;28;19925;-77
2023/06/05 04:56:39;;;;;;;;;;;17.00;72.90;;;;;;5021818;28;19925;-76
2023/06/05 04:59:07;;;;;;;;;;;17.00;72.80;;;;;;5012736;28;20319;-77
2023/06/05 05:01:34;;;;;;;;;;;17.00;72.70;;;;;;5024460;28;19932;-77
2023/06/05 05:04:01;;;;;;;;;;;17.00;72.90;;;;;;5021208;28;19936;-76
2023/06/05 05:06:30;;;;;;;;;;;17.00;72.90;;;;;;5023533;28;19936;-77
2023/06/05 05:08:57;;;;;;;;;;;17.00;72.80;;;;;;5023593;28;19929;-77
2023/06/05 05:11:24;;;;;;;;;;;17.00;73.60;;;;;;5019018;28;19925;-76
2023/06/05 05:13:52;;;;;;;;;;;17.00;73.10;;;;;;5022240;28;20003;-76
2023/06/05 05:16:20;;;;;;;;;;;17.00;72.50;;;;;;5024243;28;19925;-78
2023/06/05 05:18:47;;;;;;;;;;;17.00;73.00;;;;;;5026715;28;19929;-77
2023/06/05 05:21:14;;;;;;;;;;;17.00;73.10;;;;;;5011567;28;19925;-77
2023/06/05 05:23:44;;;;;;;;;;;17.00;73.00;;;;;;5009294;28;20416;-77
2023/06/05 05:26:11;;;;;;;;;;;17.00;73.80;;;;;;5024398;28;19933;-77
2023/06/05 05:28:38;;;;;;;;;;;17.00;73.30;;;;;;5023588;28;19925;-78
2023/06/05 05:31:05;;;;;;;;;;;17.00;73.50;;;;;;5023620;28;20299;-77
2023/06/05 05:33:34;;;;;;;;;;;17.00;73.40;;;;;;5020786;28;20343;-77
2023/06/05 05:36:03;;;;;;;;;;;17.00;73.50;;;;;;5029964;28;19933;-77
2023/06/05 05:38:30;;;;;;;;;;;17.00;73.60;;;;;;5024145;28;20253;-77
2023/06/05 05:40:58;;;;;;;;;;;17.00;73.70;;;;;;5026309;28;19983;-77
2023/06/05 05:43:26;;;;;;;;;;;17.00;73.70;;;;;;5026736;28;19971;-77
2023/06/05 05:45:53;;;;;;;;;;;17.00;73.60;;;;;;5025270;28;20411;-77
2023/06/05 05:48:20;;;;;;;;;;;17.00;73.80;;;;;;5022635;28;20024;-77
2023/06/05 05:50:46;;;;;;;;;;;17.00;74.30;;;;;;5024811;28;19933;-77
2023/06/05 05:53:13;;;;;;;;;;;17.00;73.90;;;;;;5025230;28;19960;-77
2023/06/05 05:55:40;;;;;;;;;;;17.00;74.00;;;;;;5024193;28;19930;-77
2023/06/05 05:58:08;;;;;;;;;;;17.00;74.10;;;;;;5025230;28;19967;-77
2023/06/05 06:00:35;;;;;;;;;;;17.00;74.30;;;;;;5020917;28;19933;-77
2023/06/05 06:03:02;;;;;;;;;;;17.00;73.80;;;;;;5001687;28;20439;-77
2023/06/05 06:05:30;;;;;;;;;;;17.00;74.50;;;;;;5023137;28;20438;-78
2023/06/05 06:07:57;;;;;;;;;;;17.00;75.30;;;;;;5021208;28;20583;-78
2023/06/05 06:10:26;;;;;;;;;;;17.00;78.00;;;;;;5024668;28;19932;-78
2023/06/05 06:12:53;;;;;;;;;;;17.10;77.70;;;;;;5019846;28;19925;-78
2023/06/05 06:15:21;;;;;;;;;;;17.20;78.30;;;;;;5019960;28;19956;-77
2023/06/05 06:17:48;;;;;;;;;;;17.20;78.40;;;;;;5024669;28;19925;-77
2023/06/05 06:20:15;;;;;;;;;;;17.30;78.60;;;;;;5024677;28;19926;-77
2023/06/05 06:22:42;;;;;;;;;;;17.30;79.30;;;;;;5020803;28;20422;-77
2023/06/05 06:25:11;;;;;;;;;;;17.40;80.70;;;;;;5022313;28;19932;-77
2023/06/05 06:27:38;;;;;;;;;;;17.50;80.70;;;;;;5023833;28;20471;-77
2023/06/05 06:30:07;;;;;;;;;;;17.50;81.00;;;;;;5025417;28;20015;-77
2023/06/05 06:32:35;;;;;;;;;;;17.50;81.20;;;;;;5029288;28;20043;-78
2023/06/05 06:35:02;;;;;;;;;;;17.50;81.30;;;;;;5027496;28;19929;-77
2023/06/05 06:37:29;;;;;;;;;;;17.60;81.70;;;;;;5023717;28;19947;-77
2023/06/05 06:39:56;;;;;;;;;;;17.70;80.80;;;;;;5025579;28;20338;-77
2023/06/05 06:42:22;;;;;;;;;;;17.70;80.50;;;;;;5023414;28;19925;-77
2023/06/05 06:44:59;;;;;;;;;;;17.70;80.20;;;;;;5022835;28;19933;-77
2023/06/05 06:47:26;;;;;;;;;;;17.70;80.20;;;;;;5027746;28;19944;-77
2023/06/05 06:49:55;;;;;;;;;;;17.80;80.20;;;;;;5023028;28;20019;-78
2023/06/05 06:52:21;;;;;;;;;;;17.80;80.40;;;;;;5025871;28;19963;-76
2023/06/05 06:54:48;;;;;;;;;;;17.70;80.20;;;;;;5026842;28;20022;-77
2023/06/05 06:57:15;;;;;;;;;;;17.70;80.50;;;;;;5028989;28;20401;-78
2023/06/05 06:59:42;;;;;;;;;;;17.80;80.80;;;;;;5023365;28;19965;-78
2023/06/05 07:02:10;;;;;;;;;;;17.80;80.60;;;;;;5014205;28;19924;-78
2023/06/05 07:04:37;;;;;;;;;;;17.80;80.70;;;;;;5025808;28;19968;-78
2023/06/05 07:07:06;;;;;;;;;;;17.80;80.70;;;;;;5023504;28;19951;-78
2023/06/05 07:09:33;;;;;;;;;;;17.80;80.80;;;;;;5025606;28;19971;-77
2023/06/05 07:12:04;;;;;;;;;;;17.80;80.90;;;;;;5024431;28;19935;-78
2023/06/05 07:14:31;;;;;;;;;;;17.80;80.70;;;;;;5024832;28;19933;-77
2023/06/05 07:16:59;;;;;;;;;;;17.80;81.00;;;;;;5022813;28;19929;-77
2023/06/05 07:19:26;;;;;;;;;;;17.80;81.00;;;;;;5009566;28;19926;-77
2023/06/05 07:21:53;;;;;;;;;;;17.80;81.20;;;;;;5023140;28;19947;-78
2023/06/05 07:24:24;;;;;;;;;;;17.90;81.30;;;;;;5024191;28;20587;-77
2023/06/05 07:26:51;;;;;;;;;;;17.90;81.30;;;;;;5006176;28;20385;-77
2023/06/05 07:29:18;;;;;;;;;;;17.90;81.30;;;;;;5022605;28;19970;-78
2023/06/05 07:31:45;;;;;;;;;;;17.90;81.60;;;;;;5021060;28;19984;-78
2023/06/05 07:34:13;;;;;;;;;;;18.00;81.90;;;;;;5023953;28;19925;-78
2023/06/05 07:36:40;;;;;;;;;;;18.00;82.00;;;;;;5025208;28;19925;-78
2023/06/05 07:39:07;;;;;;;;;;;18.00;81.90;;;;;;5025042;28;19940;-78
2023/06/05 07:41:35;;;;;;;;;;;18.00;82.30;;;;;;5023761;28;20352;-78
2023/06/05 07:44:02;;;;;;;;;;;18.00;82.40;;;;;;5027036;28;20004;-78
2023/06/05 07:46:29;;;;;;;;;;;18.00;82.50;;;;;;5004767;28;19964;-78
2023/06/05 07:48:55;;;;;;;;;;;18.10;82.60;;;;;;5021254;28;19944;-78
2023/06/05 07:51:22;;;;;;;;;;;18.10;82.80;;;;;;5020640;28;19987;-79
2023/06/05 07:53:49;;;;;;;;;;;18.10;82.70;;;;;;5022908;28;20010;-78
2023/06/05 07:56:23;;;;;;;;;;;18.10;83.20;;;;;;5022876;28;20256;-79
2023/06/05 07:58:53;;;;;;;;;;;18.20;83.40;;;;;;5029409;28;19932;-80
2023/06/05 08:01:25;;;;;;;;;;;18.20;83.50;;;;;;5036192;28;20003;-80
2023/06/05 08:04:02;;;;;;;;;;;18.20;84.20;;;;;;5032037;28;19929;-80
2023/06/05 08:06:38;;;;;;;;;;;18.20;83.80;;;;;;4964689;28;1907636;-80
2023/06/05 08:09:12;;;;;;;;;;;18.20;83.80;;;;;;5031038;28;19925;-80
2023/06/05 08:11:40;;;;;;;;;;;18.20;83.80;;;;;;5036497;28;19960;-79
2023/06/05 08:14:08;;;;;;;;;;;18.20;83.70;;;;;;5031878;28;19937;-80
2023/06/05 08:16:51;;;;;;;;;;;18.30;84.10;;;;;;5028451;28;20334;-81
2023/06/05 08:19:19;;;;;;;;;;;18.30;84.30;;;;;;5032045;28;19975;-80
2023/06/05 08:21:53;;;;;;;;;;;18.30;84.20;;;;;;5027268;28;20036;-80
2023/06/05 08:24:20;;;;;;;;;;;18.30;84.40;;;;;;5027329;28;20380;-82
2023/06/05 08:26:47;;;;;;;;;;;18.30;84.30;;;;;;5028704;28;19925;-80
2023/06/05 08:29:19;;;;;;;;;;;18.30;84.30;;;;;;5026633;28;19925;-79
2023/06/05 08:31:46;;;;;;;;;;;18.40;84.60;;;;;;5028478;28;20022;-79
2023/06/05 08:34:13;;;;;;;;;;;18.40;84.50;;;;;;5030245;28;19925;-79
2023/06/05 08:36:46;;;;;;;;;;;18.40;84.60;;;;;;5029685;28;19933;-80
2023/06/05 08:39:13;;;;;;;;;;;18.40;84.60;;;;;;5026498;28;19933;-78
2023/06/05 08:41:41;;;;;;;;;;;18.40;84.70;;;;;;5015255;28;19976;-79
2023/06/05 08:44:08;;;;;;;;;;;18.40;84.80;;;;;;5023613;28;19932;-79
2023/06/05 08:46:37;;;;;;;;;;;18.40;84.80;;;;;;5025761;28;20013;-80
2023/06/05 08:49:08;;;;;;;;;;;18.50;85.10;;;;;;5027724;28;19933;-79
2023/06/05 08:51:35;;;;;;;;;;;18.50;85.20;;;;;;5030707;28;19948;-80
2023/06/05 08:54:17;;;;;;;;;;;18.50;85.20;;;;;;5031994;28;19933;-79
2023/06/05 08:56:48;;;;;;;;;;;18.50;85.10;;;;;;5027279;28;20306;-80
2023/06/05 08:59:15;;;;;;;;;;;18.50;85.00;;;;;;5027677;28;20319;-80
2023/06/05 09:01:44;;;;;;;;;;;18.50;85.00;;;;;;5026889;28;19975;-79
